Hovedside
METAR-TAF:

METAR-TAF

Lufthavner :

Åre Östersund lufthavn

Östersund-Frösön, Sverige

breddegrad: 63-11N, lengdegrad: 014-30E, høyde over havet: 376 m

Gjeldene værobservasjon

Denne rapporten ble laget for 42 minutter siden, klokken 12:50 UTC
Vind 15 kt fra Sør
Temperatur 4°C
Luftfuktighet 44%
Trykk 1018 hPa
Sikt 10 km eller mer
ingen skyer under 1500 m og ingen bygeskyer

METAR: ESNZ 221250Z 18015KT CAVOK 04/M07 Q1018

Tid: 14:32 (13:32 UTC)

Varsel

Denne rapporten ble laget for 2 timer og 2 minutter siden, klokken 11:30 UTC
Varsel gyldig fra 22. klokken 12 UTC til 22. klokken 21 UTC
Vind 10 kt fra Sør
Sikt 10 km eller mer
ingen skyer under 1500 m og ingen bygeskyer
Blir
fra 22. klokken 13 UTC til 22. klokken 15 UTC
Vind 15 kt fra Sør med vindkast opp mot 25 kt

TAF: ESNZ 221130Z 2212/2221 17010KT CAVOK BECMG 2213/2215 18015G25KT

Værobservasjoner og værvarsel for over 4000 flyplasser (METAR- og TAF-rapporter).

Tilgjengelige stasjoner er representert av de røde og gule prikkene på kartet.

Hold musepekeren over prikken for å se navnet på stasjonen.

Klikk så for å se værobservasjoner og -varsler.

For å forandre kartet kan du klikke på den grønne knappen med svart kryss for å zoome inn, på den grønne knappen med strek for å zoome ut, eller på de grønne pilene for å se tilstøtende kart.


METAR-TAF: